Time;durP1;ratioP1;P1;durP2;ratioP2;P2;SDS_P1;SDS_P2;PMS_P1;PMS_P2;Temp;Humidity;BMP_temperature;BMP_pressure;BME280_temperature;BME280_humidity;BME280_pressure;Samples;Min_cycle;Max_cycle;Signal;HPM_P1;HPM_P2
2022/01/18 00:01:57;;;;;;;13.63;9.73;;;5.20;99.90;;;;;;4996423;28;20022;-73
2022/01/18 00:04:24;;;;;;;15.32;10.75;;;5.10;99.90;;;;;;4996213;28;20534;-74
2022/01/18 00:06:52;;;;;;;13.23;11.25;;;5.20;99.90;;;;;;4994020;28;20082;-73
2022/01/18 00:09:21;;;;;;;15.85;10.73;;;5.10;99.90;;;;;;4995574;28;20030;-73
2022/01/18 00:11:56;;;;;;;14.02;10.93;;;5.20;99.90;;;;;;4995245;28;20026;-73
2022/01/18 00:14:26;;;;;;;12.38;9.82;;;5.10;99.90;;;;;;4995605;28;20105;-73
2022/01/18 00:17:40;;;;;;;14.88;10.52;;;5.20;99.90;;;;;;4994876;28;20390;-74
2022/01/18 00:19:54;;;;;;;12.18;10.25;;;5.20;99.90;;;;;;4993754;28;20088;-74
2022/01/18 00:22:20;;;;;;;13.68;10.85;;;5.20;99.90;;;;;;4993561;28;20022;-73
2022/01/18 00:24:45;;;;;;;12.18;10.35;;;5.20;99.90;;;;;;4996001;28;20029;-73
2022/01/18 00:27:15;;;;;;;14.63;11.25;;;5.20;99.90;;;;;;4994102;28;20022;-73
2022/01/18 00:35:14;;;;;;;14.23;11.30;;;5.30;99.90;;;;;;4994131;28;20061;-73
2022/01/18 00:37:50;;;;;;;13.30;10.77;;;5.30;99.90;;;;;;4994450;28;20054;-74
2022/01/18 00:40:16;;;;;;;13.05;11.40;;;5.30;99.90;;;;;;4994203;28;20033;-73
2022/01/18 00:42:41;;;;;;;13.52;11.20;;;5.30;99.90;;;;;;4993899;28;20022;-72
2022/01/18 00:45:07;;;;;;;13.98;10.43;;;5.30;99.90;;;;;;4994009;28;20033;-73
2022/01/18 00:47:33;;;;;;;12.10;10.02;;;5.30;99.90;;;;;;4992524;28;20030;-73
2022/01/18 00:50:01;;;;;;;14.07;11.18;;;5.30;99.90;;;;;;4994040;28;20030;-73
2022/01/18 00:52:29;;;;;;;11.80;9.80;;;5.30;99.90;;;;;;4993821;28;20022;-72
2022/01/18 00:54:54;;;;;;;13.88;11.65;;;5.30;99.90;;;;;;4994667;28;20410;-72
2022/01/18 00:57:20;;;;;;;15.05;10.10;;;5.30;99.90;;;;;;4994134;28;20030;-73
2022/01/18 00:59:47;;;;;;;11.63;10.38;;;5.40;99.90;;;;;;4993857;28;20034;-73
2022/01/18 01:02:14;;;;;;;16.05;11.90;;;5.30;99.90;;;;;;4993700;28;20104;-73
2022/01/18 01:04:46;;;;;;;17.83;11.95;;;5.40;99.90;;;;;;4993747;28;20029;-72
2022/01/18 01:07:12;;;;;;;14.10;10.70;;;5.40;99.90;;;;;;4993541;28;20023;-73
2022/01/18 01:09:38;;;;;;;13.75;10.48;;;5.40;99.90;;;;;;4993358;28;20466;-72
2022/01/18 01:12:06;;;;;;;14.07;10.93;;;5.40;99.90;;;;;;4996260;28;20022;-74
2022/01/18 01:14:33;;;;;;;12.60;10.38;;;5.40;99.90;;;;;;4993751;28;20057;-73
2022/01/18 01:43:29;;;;;;;16.75;13.07;;;5.40;99.90;;;;;;4982213;28;20517;-77
2022/01/18 01:45:55;;;;;;;14.75;11.57;;;5.40;99.90;;;;;;4983220;28;20053;-76
2022/01/18 01:48:25;;;;;;;15.38;11.85;;;5.40;99.90;;;;;;4984503;28;20043;-76
2022/01/18 01:51:01;;;;;;;16.20;12.63;;;5.70;99.90;;;;;;4988701;28;20123;-76
2022/01/18 01:53:27;;;;;;;17.92;11.77;;;5.80;99.90;;;;;;4981328;28;20122;-78
2022/01/18 01:55:54;;;;;;;14.80;11.43;;;5.80;99.90;;;;;;4979418;28;20440;-76
2022/01/18 01:58:22;;;;;;;18.52;11.57;;;5.90;99.90;;;;;;4976233;28;20054;-78
2022/01/18 02:00:53;;;;;;;14.35;11.63;;;5.80;99.90;;;;;;4973672;28;20019;-78
2022/01/18 02:03:20;;;;;;;18.80;12.05;;;5.80;99.90;;;;;;4988873;28;20499;-76
2022/01/18 02:05:46;;;;;;;20.23;14.15;;;5.80;99.90;;;;;;4986119;28;20038;-76
2022/01/18 02:08:12;;;;;;;15.38;12.57;;;5.70;99.90;;;;;;4991179;28;20033;-76
2022/01/18 02:10:41;;;;;;;16.50;13.02;;;5.60;99.90;;;;;;4994286;28;20027;-77
2022/01/18 02:13:08;;;;;;;17.15;13.95;;;5.60;99.90;;;;;;4991369;28;20015;-77
2022/01/18 02:15:41;;;;;;;17.80;13.43;;;5.60;99.90;;;;;;4979545;28;20027;-76
2022/01/18 02:23:37;;;;;;;18.90;13.52;;;5.20;99.90;;;;;;4977016;28;20037;-77
2022/01/18 02:26:03;;;;;;;15.82;13.40;;;5.20;99.90;;;;;;4977846;28;20483;-77
2022/01/18 02:28:29;;;;;;;21.13;14.02;;;5.30;99.90;;;;;;4978213;28;20030;-77
2022/01/18 02:30:55;;;;;;;18.08;14.07;;;5.30;99.90;;;;;;4977869;28;20089;-77
2022/01/18 02:33:22;;;;;;;15.60;12.23;;;5.20;99.90;;;;;;4976870;28;20035;-77
2022/01/18 02:35:48;;;;;;;19.55;14.50;;;5.20;99.90;;;;;;4976327;28;20031;-77
2022/01/18 02:38:14;;;;;;;18.63;13.63;;;5.10;99.90;;;;;;4977090;28;20027;-77
2022/01/18 02:40:41;;;;;;;18.70;13.13;;;5.20;99.90;;;;;;4974387;28;20023;-78
2022/01/18 02:45:55;;;;;;;18.08;13.95;;;5.30;99.90;;;;;;4976145;28;20046;-78
2022/01/18 02:48:21;;;;;;;17.05;13.73;;;5.30;99.90;;;;;;4991007;28;20026;-77
2022/01/18 02:50:48;;;;;;;17.63;15.00;;;5.20;99.90;;;;;;4983921;28;20035;-78
2022/01/18 02:53:13;;;;;;;23.63;16.27;;;5.40;99.90;;;;;;4982057;28;20073;-77
2022/01/18 02:55:40;;;;;;;19.98;16.15;;;5.30;99.90;;;;;;4975967;28;20035;-77
2022/01/18 02:58:09;;;;;;;18.73;13.95;;;5.20;99.90;;;;;;4976125;28;20023;-78
2022/01/18 03:03:12;;;;;;;18.48;14.02;;;5.20;99.90;;;;;;4974718;28;20037;-78
2022/01/18 03:03:33;;;;;;;19.45;13.82;;;5.20;99.90;;;;;;4976672;28;20025;-78
2022/01/18 03:06:00;;;;;;;17.52;13.80;;;5.20;99.90;;;;;;4977259;28;20019;-77
2022/01/18 03:08:27;;;;;;;19.17;14.35;;;5.20;99.90;;;;;;4974802;28;20122;-77
2022/01/18 03:10:52;;;;;;;20.30;13.93;;;5.20;99.90;;;;;;4975775;28;20019;-78
2022/01/18 03:13:19;;;;;;;24.13;15.90;;;5.20;99.90;;;;;;4991714;28;20034;-77
2022/01/18 03:15:45;;;;;;;21.05;15.68;;;5.10;99.90;;;;;;4975958;28;20038;-77
2022/01/18 03:18:11;;;;;;;17.90;14.82;;;5.20;99.90;;;;;;4975411;28;20403;-77
2022/01/18 03:20:38;;;;;;;21.52;15.45;;;5.20;99.90;;;;;;4975337;28;20038;-77
2022/01/18 03:23:12;;;;;;;22.60;15.60;;;5.10;99.90;;;;;;4976124;28;20014;-76
2022/01/18 03:25:53;;;;;;;21.42;16.10;;;5.10;99.90;;;;;;4974332;28;20035;-77
2022/01/18 03:28:20;;;;;;;24.80;16.45;;;5.00;99.90;;;;;;4975771;28;20048;-76
2022/01/18 03:30:49;;;;;;;19.20;14.38;;;5.10;99.90;;;;;;4976041;28;20061;-77
2022/01/18 03:33:18;;;;;;;21.80;16.25;;;5.00;99.90;;;;;;4975534;28;20054;-77
2022/01/18 03:35:45;;;;;;;19.55;15.35;;;5.00;99.90;;;;;;4979213;28;20058;-77
2022/01/18 03:38:11;;;;;;;18.63;14.18;;;5.20;99.90;;;;;;4990308;28;20103;-77
2022/01/18 03:40:37;;;;;;;20.00;15.45;;;5.30;99.90;;;;;;4993683;28;20023;-76
2022/01/18 03:43:05;;;;;;;20.25;14.50;;;5.40;99.90;;;;;;4997558;28;20011;-77
2022/01/18 03:45:40;;;;;;;20.33;14.23;;;5.50;99.90;;;;;;4996928;28;20027;-77
2022/01/18 03:48:08;;;;;;;20.27;15.68;;;5.40;99.90;;;;;;5012121;28;20075;-77
2022/01/18 03:50:34;;;;;;;20.15;14.45;;;5.40;99.90;;;;;;4989980;28;20534;-77
2022/01/18 03:53:00;;;;;;;18.60;14.05;;;5.20;99.90;;;;;;4978041;28;20031;-77
2022/01/18 03:55:25;;;;;;;20.27;15.07;;;5.10;99.90;;;;;;4978104;28;20041;-78
2022/01/18 03:57:51;;;;;;;20.05;14.60;;;5.10;99.90;;;;;;4976374;28;20037;-77
2022/01/18 04:00:20;;;;;;;18.45;14.23;;;5.10;99.90;;;;;;4990824;28;20391;-78
2022/01/18 04:02:46;;;;;;;22.20;13.90;;;5.10;99.90;;;;;;4987184;28;20023;-76
2022/01/18 04:05:12;;;;;;;19.17;14.95;;;5.20;99.90;;;;;;4979950;28;20486;-77
2022/01/18 04:07:38;;;;;;;20.30;13.82;;;5.40;99.90;;;;;;4976683;28;20107;-77
2022/01/18 04:10:06;;;;;;;15.43;13.65;;;5.20;99.90;;;;;;4975048;28;20034;-77
2022/01/18 04:12:34;;;;;;;19.83;13.60;;;5.10;99.90;;;;;;4974353;28;20030;-78
2022/01/18 04:15:00;;;;;;;20.85;14.48;;;5.10;99.90;;;;;;4975174;28;20077;-78
2022/01/18 04:28:16;;;;;;;16.83;13.20;;;5.30;99.90;;;;;;4974106;28;20046;-77
2022/01/18 04:30:41;;;;;;;18.55;14.23;;;5.30;99.90;;;;;;4974310;28;20027;-77
2022/01/18 04:33:07;;;;;;;23.63;14.25;;;5.30;99.90;;;;;;4973888;28;20162;-78
2022/01/18 04:35:32;;;;;;;20.45;13.70;;;5.30;99.90;;;;;;4973680;28;20554;-77
2022/01/18 04:37:58;;;;;;;19.63;14.02;;;5.30;99.90;;;;;;4973672;28;20027;-77
2022/01/18 04:40:29;;;;;;;20.88;13.65;;;5.20;99.90;;;;;;4973368;28;20031;-77
2022/01/18 04:48:27;;;;;;;20.13;14.45;;;5.10;99.90;;;;;;4979828;28;20068;-77
2022/01/18 04:51:14;;;;;;;19.27;15.15;;;5.10;99.90;;;;;;4983027;28;20023;-79
2022/01/18 04:53:51;;;;;;;24.48;16.17;;;5.00;99.90;;;;;;4975201;28;20109;-78
2022/01/18 04:56:26;;;;;;;22.52;15.07;;;5.00;99.90;;;;;;4976874;28;20030;-77
2022/01/18 04:58:51;;;;;;;23.92;16.60;;;5.00;99.90;;;;;;4980165;28;20491;-77
2022/01/18 05:01:17;;;;;;;26.83;16.75;;;5.00;99.90;;;;;;4981536;28;20022;-78
2022/01/18 05:03:42;;;;;;;24.98;16.38;;;5.00;99.90;;;;;;4980690;28;20073;-79
2022/01/18 05:06:11;;;;;;;24.63;17.35;;;5.00;99.90;;;;;;4989459;28;20494;-77
2022/01/18 05:08:37;;;;;;;24.00;17.20;;;5.00;99.90;;;;;;4973987;28;20121;-77
2022/01/18 05:11:04;;;;;;;26.98;17.77;;;5.20;99.90;;;;;;4974398;28;20022;-77
2022/01/18 05:13:49;;;;;;;29.80;18.30;;;5.10;99.90;;;;;;4981840;28;20026;-77
2022/01/18 05:21:25;;;;;;;24.65;17.23;;;4.90;99.90;;;;;;4973411;28;20089;-77
2022/01/18 05:23:50;;;;;;;26.30;16.63;;;4.90;99.90;;;;;;4973411;28;20023;-77
2022/01/18 05:26:16;;;;;;;27.85;18.42;;;4.90;99.90;;;;;;4973341;28;20455;-78
2022/01/18 05:28:41;;;;;;;25.45;17.33;;;4.90;99.90;;;;;;4975692;28;20034;-76
2022/01/18 05:31:07;;;;;;;25.83;16.73;;;5.00;99.90;;;;;;4980585;28;20039;-76
2022/01/18 05:33:33;;;;;;;25.25;18.63;;;5.00;99.90;;;;;;4976119;28;20065;-77
2022/01/18 05:35:58;;;;;;;27.63;18.58;;;4.90;99.90;;;;;;4974929;28;20083;-76
2022/01/18 05:38:24;;;;;;;27.10;17.95;;;5.00;99.90;;;;;;4975376;28;20053;-77
2022/01/18 05:40:50;;;;;;;22.30;16.67;;;5.10;99.90;;;;;;4974782;28;20074;-77
2022/01/18 05:43:16;;;;;;;28.10;18.17;;;5.10;99.90;;;;;;4975891;28;20439;-77
2022/01/18 05:45:42;;;;;;;24.17;17.77;;;5.00;99.90;;;;;;4975551;28;20023;-76
2022/01/18 05:48:07;;;;;;;25.80;17.67;;;5.00;99.90;;;;;;4972507;28;20033;-77
2022/01/18 05:50:33;;;;;;;29.17;19.48;;;5.00;99.90;;;;;;4973018;28;20118;-77
2022/01/18 05:52:58;;;;;;;30.33;19.05;;;4.90;99.90;;;;;;4974854;28;20034;-77
2022/01/18 05:55:24;;;;;;;29.83;17.85;;;4.80;99.90;;;;;;4973716;28;20041;-78
2022/01/18 05:57:49;;;;;;;32.88;18.67;;;4.80;99.90;;;;;;4974638;28;20050;-78
2022/01/18 06:00:21;;;;;;;29.23;19.40;;;4.70;99.90;;;;;;4978866;28;20027;-78
2022/01/18 06:08:07;;;;;;;29.77;19.08;;;4.70;99.90;;;;;;4977370;28;20081;-77
2022/01/18 06:10:33;;;;;;;26.52;18.08;;;4.80;99.90;;;;;;4975540;28;20031;-77
2022/01/18 06:13:03;;;;;;;28.80;17.40;;;4.90;99.90;;;;;;4977564;28;20417;-77
2022/01/18 06:15:30;;;;;;;33.08;19.95;;;5.10;99.90;;;;;;4976721;28;20062;-78
2022/01/18 06:17:56;;;;;;;29.58;19.38;;;5.20;99.90;;;;;;4978408;28;20030;-78
2022/01/18 06:20:22;;;;;;;28.95;18.13;;;5.20;99.90;;;;;;4978380;28;20076;-78
2022/01/18 06:22:51;;;;;;;29.27;18.08;;;5.20;99.90;;;;;;4978127;28;20030;-77
2022/01/18 06:25:17;;;;;;;29.33;17.77;;;5.10;99.90;;;;;;5001182;28;20042;-77
2022/01/18 06:27:43;;;;;;;26.85;17.67;;;5.10;99.90;;;;;;4987978;28;20027;-78
2022/01/18 06:30:10;;;;;;;29.25;18.17;;;5.00;99.90;;;;;;4986997;28;20062;-78
2022/01/18 06:32:43;;;;;;;28.60;18.40;;;5.10;99.90;;;;;;4983475;28;20026;-76
2022/01/18 06:35:10;;;;;;;26.70;17.83;;;5.00;99.90;;;;;;4985765;28;20038;-76
2022/01/18 06:37:36;;;;;;;29.83;17.58;;;5.00;99.90;;;;;;4984513;28;20046;-77
2022/01/18 06:40:04;;;;;;;28.42;18.38;;;5.00;99.90;;;;;;4981255;28;20022;-78
2022/01/18 06:42:30;;;;;;;30.63;18.70;;;5.00;99.90;;;;;;4981709;28;20243;-78
2022/01/18 06:44:55;;;;;;;29.42;19.42;;;5.10;99.90;;;;;;4981968;28;20029;-78
2022/01/18 06:47:21;;;;;;;27.55;18.85;;;5.20;99.90;;;;;;4979556;28;20459;-77
2022/01/18 06:49:46;;;;;;;36.33;19.92;;;5.00;99.90;;;;;;4982003;28;20067;-77
2022/01/18 06:52:12;;;;;;;29.83;19.30;;;5.00;99.90;;;;;;4981376;28;20027;-77
2022/01/18 06:54:38;;;;;;;30.75;18.75;;;5.00;99.90;;;;;;4982846;28;20042;-77
2022/01/18 06:57:04;;;;;;;25.65;17.33;;;5.10;99.90;;;;;;4985791;28;20031;-77
2022/01/18 06:59:29;;;;;;;25.70;17.63;;;5.10;99.90;;;;;;4979796;28;20027;-77
2022/01/18 07:01:55;;;;;;;29.45;19.40;;;5.10;99.90;;;;;;4975337;28;20101;-77
2022/01/18 07:04:21;;;;;;;29.23;18.92;;;5.20;99.90;;;;;;4975558;28;20479;-78
2022/01/18 07:06:47;;;;;;;30.98;18.40;;;5.00;99.90;;;;;;4977724;28;20026;-77
2022/01/18 07:09:15;;;;;;;30.15;19.63;;;5.00;99.90;;;;;;4977334;28;20143;-78
2022/01/18 07:11:41;;;;;;;28.63;19.23;;;4.90;99.90;;;;;;4977405;28;20038;-78
2022/01/18 07:14:07;;;;;;;27.23;18.33;;;5.00;99.90;;;;;;4979535;28;20081;-78
2022/01/18 07:16:32;;;;;;;29.60;19.40;;;5.00;99.90;;;;;;4977952;28;20398;-78
2022/01/18 07:18:58;;;;;;;25.90;18.20;;;5.00;99.90;;;;;;4981015;28;20070;-77
2022/01/18 07:21:23;;;;;;;30.40;18.25;;;5.00;99.90;;;;;;4989136;28;20035;-78
2022/01/18 07:23:52;;;;;;;31.58;19.27;;;5.00;99.90;;;;;;4979023;28;20102;-77
2022/01/18 07:26:17;;;;;;;28.80;18.80;;;5.00;99.90;;;;;;4977809;28;20585;-78
2022/01/18 07:28:43;;;;;;;28.55;18.95;;;5.00;99.90;;;;;;5002097;23;20043;-73
2022/01/18 07:31:09;;;;;;;33.22;18.13;;;5.00;99.90;;;;;;5032838;28;20029;-73
2022/01/18 07:33:39;;;;;;;31.23;18.35;;;5.00;99.90;;;;;;5018057;28;20021;-72
2022/01/18 07:36:05;;;;;;;30.70;19.13;;;5.10;99.90;;;;;;5032311;28;20097;-73
2022/01/18 07:38:31;;;;;;;28.50;18.25;;;5.10;99.90;;;;;;5018888;28;20064;-73
2022/01/18 07:40:56;;;;;;;32.42;19.83;;;5.20;99.90;;;;;;5016795;28;20041;-73
2022/01/18 07:43:22;;;;;;;25.45;17.83;;;5.30;99.90;;;;;;5016563;28;20022;-74
2022/01/18 07:45:49;;;;;;;32.83;19.52;;;5.30;99.90;;;;;;5016110;28;20018;-73
2022/01/18 07:48:14;;;;;;;29.33;17.90;;;5.30;99.90;;;;;;5015221;28;20029;-73
2022/01/18 07:50:41;;;;;;;28.90;18.15;;;5.40;99.90;;;;;;5015824;28;20033;-73
2022/01/18 07:53:07;;;;;;;28.45;18.10;;;5.30;99.90;;;;;;5016344;28;20462;-73
2022/01/18 07:55:32;;;;;;;28.55;18.20;;;5.40;99.90;;;;;;5017527;28;20037;-75
2022/01/18 07:57:59;;;;;;;27.30;17.92;;;5.40;99.90;;;;;;5016606;28;20037;-73
2022/01/18 08:00:26;;;;;;;28.92;17.15;;;5.40;99.90;;;;;;5018285;28;20101;-73
2022/01/18 08:02:51;;;;;;;26.23;18.17;;;5.50;99.90;;;;;;5018369;28;20065;-74
2022/01/18 08:05:17;;;;;;;28.60;17.40;;;5.50;99.90;;;;;;5016526;28;20413;-73
2022/01/18 08:07:43;;;;;;;29.42;19.35;;;5.60;99.90;;;;;;5024611;28;20053;-73
2022/01/18 08:10:11;;;;;;;23.10;17.25;;;5.70;99.90;;;;;;5026382;28;20022;-73
2022/01/18 08:12:37;;;;;;;32.38;19.88;;;5.70;99.90;;;;;;5019333;28;20061;-72
2022/01/18 08:15:13;;;;;;;30.48;20.48;;;5.70;99.90;;;;;;5017805;28;20053;-73
2022/01/18 08:17:40;;;;;;;26.50;18.88;;;5.50;99.90;;;;;;5017223;28;20486;-74
2022/01/18 08:20:06;;;;;;;27.55;17.23;;;5.60;99.90;;;;;;5014422;28;20022;-74
2022/01/18 08:22:32;;;;;;;31.75;18.50;;;5.60;99.90;;;;;;5017207;28;20040;-73
2022/01/18 08:24:57;;;;;;;28.13;18.58;;;5.70;99.90;;;;;;5032462;28;20030;-72
2022/01/18 08:27:23;;;;;;;26.17;16.45;;;5.60;99.90;;;;;;5035813;28;20030;-72
2022/01/18 08:29:48;;;;;;;23.70;16.35;;;5.60;99.90;;;;;;5035122;28;20077;-73
2022/01/18 08:32:15;;;;;;;29.08;18.33;;;5.80;99.90;;;;;;5032237;28;20026;-72
2022/01/18 08:34:41;;;;;;;30.00;18.30;;;5.60;99.90;;;;;;5043403;28;20038;-72
2022/01/18 08:37:06;;;;;;;27.90;18.60;;;5.50;99.90;;;;;;5018112;28;20030;-73
2022/01/18 08:39:32;;;;;;;26.15;17.67;;;5.40;99.90;;;;;;5016046;28;20029;-73
2022/01/18 08:41:58;;;;;;;25.52;18.88;;;5.50;99.90;;;;;;5030738;28;20386;-73
2022/01/18 08:44:23;;;;;;;26.77;19.27;;;5.70;99.90;;;;;;5015400;28;20077;-73
2022/01/18 08:46:49;;;;;;;26.55;17.23;;;5.80;99.90;;;;;;5030252;28;20033;-73
2022/01/18 08:49:14;;;;;;;26.63;17.48;;;5.70;99.90;;;;;;5015456;28;20040;-74
2022/01/18 08:51:40;;;;;;;33.25;18.52;;;5.70;99.90;;;;;;5014851;28;20040;-74
2022/01/18 08:54:07;;;;;;;28.42;17.45;;;5.90;99.90;;;;;;5013692;28;20381;-72
2022/01/18 08:56:32;;;;;;;22.60;16.17;;;5.90;99.90;;;;;;5012675;28;20037;-74
2022/01/18 08:58:58;;;;;;;28.80;16.90;;;5.80;99.90;;;;;;5013060;28;20052;-73
2022/01/18 09:01:23;;;;;;;24.13;16.00;;;5.90;99.90;;;;;;5013606;28;20029;-74
2022/01/18 09:03:52;;;;;;;27.10;16.25;;;5.90;99.90;;;;;;5013061;28;20037;-74
2022/01/18 09:06:18;;;;;;;21.77;15.75;;;6.20;99.90;;;;;;5013021;28;20040;-74
2022/01/18 09:08:45;;;;;;;21.38;16.02;;;6.40;99.90;;;;;;5028195;28;20026;-73
2022/01/18 09:11:12;;;;;;;23.67;15.63;;;6.40;99.90;;;;;;5014380;28;20105;-73
2022/01/18 09:13:38;;;;;;;26.90;16.92;;;6.50;99.90;;;;;;5014122;28;20129;-73
2022/01/18 09:16:06;;;;;;;25.77;16.38;;;6.50;99.90;;;;;;5014896;28;20049;-72
2022/01/18 09:18:32;;;;;;;22.67;15.35;;;6.50;99.90;;;;;;5015038;28;20037;-74
2022/01/18 09:20:58;;;;;;;23.80;15.85;;;6.30;99.90;;;;;;5014622;28;20084;-73
2022/01/18 09:23:24;;;;;;;24.67;16.88;;;6.30;99.90;;;;;;5015260;28;20022;-73
2022/01/18 09:25:50;;;;;;;27.08;16.88;;;6.40;99.90;;;;;;5016733;28;20057;-73
2022/01/18 09:28:16;;;;;;;21.58;15.10;;;6.50;99.90;;;;;;5019287;28;20094;-74
2022/01/18 09:30:42;;;;;;;24.08;14.50;;;6.40;99.90;;;;;;5016340;28;20565;-73
2022/01/18 09:33:08;;;;;;;19.80;14.77;;;6.40;99.90;;;;;;5018763;28;20037;-74
2022/01/18 09:35:35;;;;;;;24.92;16.10;;;6.40;99.90;;;;;;5019355;28;20029;-74
2022/01/18 09:38:00;;;;;;;22.20;15.55;;;6.50;99.90;;;;;;5020497;28;20417;-73
2022/01/18 09:40:26;;;;;;;24.13;15.23;;;6.30;99.90;;;;;;5017829;28;20026;-73
2022/01/18 09:42:56;;;;;;;25.83;18.05;;;6.20;99.90;;;;;;5018250;28;20394;-73
2022/01/18 09:45:24;;;;;;;26.17;17.35;;;6.40;99.90;;;;;;5019192;28;20026;-74
2022/01/18 09:47:53;;;;;;;25.25;17.08;;;6.50;99.90;;;;;;5016473;28;20080;-73
2022/01/18 09:50:29;;;;;;;20.50;15.10;;;6.60;99.90;;;;;;5018202;28;20022;-74
2022/01/18 09:52:56;;;;;;;25.75;15.57;;;6.90;99.90;;;;;;5018598;28;20097;-73
2022/01/18 09:55:23;;;;;;;25.85;17.60;;;6.90;99.90;;;;;;5018085;28;20026;-73
2022/01/18 09:57:50;;;;;;;22.38;16.27;;;7.00;99.90;;;;;;5018798;28;20470;-73
2022/01/18 10:00:16;;;;;;;23.95;15.90;;;7.20;99.90;;;;;;5018704;28;20030;-73
2022/01/18 10:02:42;;;;;;;28.13;15.85;;;6.90;99.90;;;;;;5019766;28;20030;-74
2022/01/18 10:05:33;;;;;;;25.38;16.85;;;6.80;99.90;;;;;;5033825;28;20030;-74
2022/01/18 10:08:02;;;;;;;22.20;15.55;;;7.00;99.90;;;;;;5018263;28;20045;-73
2022/01/18 10:10:37;;;;;;;24.10;14.25;;;7.00;99.90;;;;;;5032740;28;20014;-73
2022/01/18 10:13:02;;;;;;;20.88;13.55;;;7.20;99.90;;;;;;5033409;28;20026;-72
2022/01/18 10:15:28;;;;;;;26.55;14.85;;;7.20;99.90;;;;;;5018813;28;20033;-73
2022/01/18 10:18:06;;;;;;;20.88;13.90;;;7.20;99.90;;;;;;5017665;28;20018;-73
2022/01/18 10:20:46;;;;;;;21.23;14.13;;;7.00;99.90;;;;;;5017787;28;20069;-73
2022/01/18 10:23:20;;;;;;;20.33;13.30;;;6.90;99.90;;;;;;5017434;28;20022;-73
2022/01/18 10:25:46;;;;;;;19.83;11.38;;;7.00;99.90;;;;;;5016493;28;20041;-73
2022/01/18 10:28:31;;;;;;;20.38;11.40;;;7.10;99.90;;;;;;5015772;28;20025;-74
2022/01/18 10:31:00;;;;;;;18.70;11.15;;;7.20;99.90;;;;;;5017490;28;20038;-73
2022/01/18 10:33:30;;;;;;;17.02;11.27;;;7.10;99.90;;;;;;5023025;28;20053;-72
2022/01/18 10:36:21;;;;;;;19.15;12.00;;;7.20;99.90;;;;;;5024634;28;20022;-74
2022/01/18 10:38:48;;;;;;;19.00;11.10;;;7.30;99.90;;;;;;5017873;28;20038;-73
2022/01/18 10:41:28;;;;;;;18.90;12.85;;;7.50;99.90;;;;;;5017115;28;20398;-74
2022/01/18 10:44:08;;;;;;;18.05;10.88;;;7.60;99.90;;;;;;5018457;28;20022;-73
2022/01/18 10:46:37;;;;;;;21.48;12.40;;;7.80;99.90;;;;;;5017219;28;20029;-73
2022/01/18 10:49:03;;;;;;;20.02;13.70;;;7.70;99.90;;;;;;5017079;28;20097;-73
2022/01/18 10:51:34;;;;;;;18.75;13.63;;;7.80;99.90;;;;;;5017051;28;20409;-73
2022/01/18 10:54:04;;;;;;;20.70;12.80;;;8.00;99.90;;;;;;5016605;28;20022;-73
2022/01/18 10:56:43;;;;;;;22.45;12.57;;;7.90;99.90;;;;;;5016386;28;20117;-73
2022/01/18 10:59:24;;;;;;;19.00;12.63;;;8.00;99.90;;;;;;5031357;28;20018;-73
2022/01/18 11:02:12;;;;;;;23.13;13.55;;;8.00;99.90;;;;;;5015862;28;20130;-74
2022/01/18 11:04:38;;;;;;;22.90;12.73;;;7.40;99.90;;;;;;5015046;28;20026;-75
2022/01/18 11:07:04;;;;;;;18.42;12.38;;;7.30;99.90;;;;;;5015036;28;20025;-73
2022/01/18 11:09:31;;;;;;;19.65;13.52;;;7.40;99.90;;;;;;5016432;28;20085;-73
2022/01/18 11:11:57;;;;;;;23.88;13.57;;;7.60;99.90;;;;;;5015226;28;20026;-73
2022/01/18 11:14:25;;;;;;;23.42;14.40;;;7.10;99.90;;;;;;5016534;28;20026;-74
2022/01/18 11:16:52;;;;;;;20.08;14.27;;;7.40;99.90;;;;;;5015309;28;20491;-74
2022/01/18 11:21:50;;;;;;;16.52;10.85;;;8.00;99.90;;;;;;5022737;28;20026;-74
2022/01/18 11:24:18;;;;;;;17.27;12.77;;;8.30;99.90;;;;;;5016907;28;20048;-74
2022/01/18 11:26:45;;;;;;;16.58;11.18;;;8.50;99.90;;;;;;5016012;28;20501;-74
2022/01/18 11:29:12;;;;;;;19.85;13.50;;;8.80;99.90;;;;;;5017297;28;20069;-73
2022/01/18 11:31:40;;;;;;;22.45;12.25;;;8.80;99.90;;;;;;5016345;28;20097;-74
2022/01/18 11:34:11;;;;;;;12.75;8.23;;;8.70;99.90;;;;;;5015320;28;20030;-74
2022/01/18 11:36:39;;;;;;;;;;;8.40;99.90;;;;;;5018735;28;20056;-74
2022/01/18 11:39:11;;;;;;;20.77;12.35;;;8.50;99.90;;;;;;5031292;28;19905;-72
2022/01/18 11:41:37;;;;;;;16.95;11.07;;;8.30;99.90;;;;;;5032812;28;20033;-75
2022/01/18 11:44:16;;;;;;;16.02;10.70;;;8.20;99.90;;;;;;5031613;28;20084;-73
2022/01/18 11:46:52;;;;;;;13.55;9.55;;;8.00;99.90;;;;;;5025133;28;20080;-73
2022/01/18 11:49:21;;;;;;;17.75;11.25;;;7.30;99.90;;;;;;5017903;28;20030;-74
2022/01/18 11:51:52;;;;;;;20.08;9.93;;;7.20;99.90;;;;;;5017498;28;20053;-74
2022/01/18 11:54:20;;;;;;;;;;;7.40;99.90;;;;;;5017055;28;20034;-75
2022/01/18 11:56:46;;;;;;;16.60;10.25;;;7.60;99.90;;;;;;5015733;28;19910;-72
2022/01/18 11:59:26;;;;;;;18.35;12.38;;;7.50;99.90;;;;;;5017760;28;20044;-73
2022/01/18 12:01:54;;;;;;;19.55;11.20;;;7.40;99.90;;;;;;5017111;28;20026;-74
2022/01/18 12:07:11;;;;;;;14.80;9.55;;;7.30;99.90;;;;;;5025331;28;20040;-72
2022/01/18 12:09:42;;;;;;;13.57;8.52;;;7.40;99.90;;;;;;5031510;28;20087;-73
2022/01/18 12:12:35;;;;;;;13.15;8.88;;;7.40;99.90;;;;;;5029195;28;20029;-73
2022/01/18 12:15:02;;;;;;;11.07;7.90;;;7.40;99.90;;;;;;5029964;28;20085;-73
2022/01/18 12:17:45;;;;;;;14.38;7.85;;;7.40;99.90;;;;;;5031368;28;20057;-73
2022/01/18 12:20:33;;;;;;;10.70;7.15;;;7.30;99.90;;;;;;5030150;28;20030;-73
2022/01/18 12:23:10;;;;;;;13.10;7.13;;;7.40;99.90;;;;;;5018348;28;20539;-73
2022/01/18 12:25:54;;;;;;;7.20;6.10;;;7.30;99.90;;;;;;5032113;28;20085;-73
2022/01/18 12:37:11;;;;;;;10.20;5.65;;;7.60;99.90;;;;;;5016135;28;20030;-74
2022/01/18 12:45:08;;;;;;;10.55;6.63;;;7.70;99.90;;;;;;5015200;28;20032;-72
2022/01/18 12:47:36;;;;;;;10.60;6.30;;;7.70;99.90;;;;;;5014840;28;20080;-72
2022/01/18 12:50:05;;;;;;;9.43;4.85;;;7.70;99.90;;;;;;5014905;28;20037;-73
2022/01/18 12:52:51;;;;;;;6.63;3.90;;;7.60;99.90;;;;;;5015466;28;20033;-73
2022/01/18 12:55:45;;;;;;;10.48;4.97;;;7.40;99.90;;;;;;5025910;28;20030;-73
2022/01/18 12:58:23;;;;;;;6.80;3.03;;;7.40;99.90;;;;;;5028588;28;20042;-73
2022/01/18 13:00:51;;;;;;;11.00;4.80;;;7.40;99.90;;;;;;5032013;28;20026;-72
2022/01/18 13:03:26;;;;;;;8.98;4.78;;;7.50;99.90;;;;;;5033626;28;20022;-73
2022/01/18 13:05:55;;;;;;;7.88;4.55;;;7.40;99.90;;;;;;5049006;28;20010;-73
2022/01/18 13:08:24;;;;;;;6.03;4.25;;;7.40;99.90;;;;;;5022589;28;20025;-73
2022/01/18 13:10:51;;;;;;;4.80;3.88;;;7.40;99.90;;;;;;5014334;28;20548;-73
2022/01/18 13:13:21;;;;;;;5.05;3.78;;;7.40;99.90;;;;;;5015714;28;20028;-74
2022/01/18 13:26:54;;;;;;;;;;;6.90;99.90;;;;;;5013557;28;20397;-72
2022/01/18 13:29:28;;;;;;;8.80;3.47;;;6.90;99.90;;;;;;5050609;23;19928;-77
2022/01/18 13:31:59;;;;;;;6.78;2.78;;;6.90;99.90;;;;;;5026759;28;20085;-78
2022/01/18 13:34:37;;;;;;;10.30;3.50;;;6.80;99.90;;;;;;5020868;28;20076;-79
2022/01/18 13:37:05;;;;;;;14.75;5.90;;;6.90;99.90;;;;;;5021279;28;20392;-78
2022/01/18 13:39:36;;;;;;;6.63;3.17;;;7.20;99.90;;;;;;5034560;28;20053;-78
2022/01/18 13:42:04;;;;;;;6.63;3.88;;;7.40;99.90;;;;;;5013664;28;20057;-77
2022/01/18 13:44:30;;;;;;;8.68;2.55;;;7.50;99.90;;;;;;5015941;28;20025;-78
2022/01/18 13:47:10;;;;;;;4.50;2.38;;;7.70;99.90;;;;;;5015410;28;20018;-77
2022/01/18 13:49:36;;;;;;;2.23;1.97;;;7.70;99.90;;;;;;5014637;28;20446;-77
2022/01/18 13:52:03;;;;;;;3.42;2.20;;;7.70;99.90;;;;;;5015985;28;20045;-78
2022/01/18 13:54:52;;;;;;;6.25;2.65;;;7.60;99.90;;;;;;5014913;28;20080;-78
2022/01/18 13:57:22;;;;;;;7.63;2.45;;;7.60;99.90;;;;;;5015043;28;20030;-79
2022/01/18 13:59:49;;;;;;;6.88;2.92;;;7.60;99.90;;;;;;5018602;28;20097;-78
2022/01/18 14:02:21;;;;;;;7.72;3.15;;;7.70;99.90;;;;;;5035244;28;20026;-79
2022/01/18 14:05:09;;;;;;;5.28;2.90;;;7.60;99.90;;;;;;5020374;28;20052;-79
2022/01/18 14:07:35;;;;;;;5.30;2.33;;;7.60;99.90;;;;;;5016817;28;20025;-78
2022/01/18 14:10:03;;;;;;;5.18;2.85;;;7.70;99.90;;;;;;5015517;28;20022;-78
2022/01/18 14:12:31;;;;;;;4.65;2.13;;;7.70;99.90;;;;;;5016723;28;20032;-78
2022/01/18 14:14:57;;;;;;;7.03;2.67;;;7.70;99.90;;;;;;5021614;28;20030;-79
2022/01/18 14:17:23;;;;;;;5.95;2.40;;;7.70;99.90;;;;;;5018376;28;20103;-78
2022/01/18 14:19:51;;;;;;;2.92;2.28;;;7.60;99.90;;;;;;5033676;28;20049;-80
2022/01/18 14:22:20;;;;;;;3.97;2.10;;;7.70;99.90;;;;;;5021807;28;20029;-80
2022/01/18 14:24:47;;;;;;;3.55;1.92;;;7.70;99.90;;;;;;5019853;28;20026;-77
2022/01/18 14:27:21;;;;;;;10.45;2.63;;;7.70;99.90;;;;;;5019954;28;20480;-78